Time;durP1;ratioP1;P1;durP2;ratioP2;P2;SDS_P1;SDS_P2;PMS_P1;PMS_P2;Temp;Humidity;BMP_temperature;BMP_pressure;BME280_temperature;BME280_humidity;BME280_pressure;Samples;Min_cycle;Max_cycle;Signal;HPM_P1;HPM_P2
2022/08/20 00:01:08;;;;;;;10.83;10.03;;;23.00;99.90;;;;;;5136160;27;20960;-59
2022/08/20 00:03:36;;;;;;;11.53;10.73;;;23.00;99.90;;;;;;5136128;27;20449;-59
2022/08/20 00:06:07;;;;;;;13.73;12.27;;;23.00;99.90;;;;;;5135871;27;20515;-59
2022/08/20 00:08:34;;;;;;;12.90;11.80;;;22.90;99.90;;;;;;5136211;27;20444;-59
2022/08/20 00:11:03;;;;;;;13.20;11.90;;;22.90;99.90;;;;;;5136101;27;20451;-59
2022/08/20 00:13:34;;;;;;;12.90;10.87;;;22.80;99.90;;;;;;5135950;27;20445;-59
2022/08/20 00:16:02;;;;;;;11.93;10.87;;;22.60;99.90;;;;;;5135957;27;20459;-59
2022/08/20 00:18:30;;;;;;;12.60;11.60;;;22.40;99.90;;;;;;5135204;27;20444;-59
2022/08/20 00:20:57;;;;;;;12.53;11.53;;;22.50;99.90;;;;;;5135721;27;20541;-59
2022/08/20 00:23:25;;;;;;;12.70;11.60;;;22.40;99.90;;;;;;5135940;27;20449;-59
2022/08/20 00:25:52;;;;;;;11.90;10.90;;;22.40;99.90;;;;;;5135874;27;20508;-60
2022/08/20 00:28:18;;;;;;;12.77;11.73;;;22.30;99.90;;;;;;5135821;27;20886;-61
2022/08/20 00:30:46;;;;;;;11.97;10.93;;;22.20;99.90;;;;;;5135662;27;20544;-59
2022/08/20 00:33:19;;;;;;;12.20;11.30;;;22.20;99.90;;;;;;5135500;27;20451;-59
2022/08/20 00:35:50;;;;;;;13.60;12.40;;;22.20;99.90;;;;;;5135683;27;20833;-60
2022/08/20 00:38:17;;;;;;;13.93;12.80;;;22.20;99.90;;;;;;5135426;27;20932;-59
2022/08/20 00:40:47;;;;;;;12.57;11.43;;;22.20;99.90;;;;;;5135463;27;20471;-60
2022/08/20 00:43:29;;;;;;;12.93;11.83;;;22.20;99.90;;;;;;5135283;27;20857;-59
2022/08/20 00:45:56;;;;;;;14.80;13.47;;;22.30;99.90;;;;;;5135076;27;20472;-59
2022/08/20 00:48:25;;;;;;;14.23;13.03;;;22.30;99.90;;;;;;5135022;27;20832;-59
2022/08/20 00:50:56;;;;;;;16.80;15.07;;;22.20;99.90;;;;;;5135216;27;20449;-59
2022/08/20 00:53:25;;;;;;;14.33;13.00;;;22.00;99.90;;;;;;5135039;27;20491;-59
2022/08/20 00:55:51;;;;;;;14.20;13.10;;;21.90;99.90;;;;;;5135078;27;20837;-59
2022/08/20 00:58:19;;;;;;;17.23;15.83;;;22.00;99.90;;;;;;5134959;27;20440;-59
2022/08/20 01:00:48;;;;;;;16.90;15.47;;;22.00;99.90;;;;;;5135127;27;20501;-59
2022/08/20 01:03:19;;;;;;;17.23;15.80;;;22.10;99.90;;;;;;5134993;27;20444;-59
2022/08/20 01:05:48;;;;;;;16.07;14.53;;;22.10;99.90;;;;;;5134902;27;20843;-59
2022/08/20 01:08:18;;;;;;;17.20;15.80;;;22.20;99.90;;;;;;5134878;27;20876;-59
2022/08/20 01:10:47;;;;;;;18.70;17.10;;;22.20;99.90;;;;;;5134704;27;20444;-59
2022/08/20 01:13:19;;;;;;;15.70;14.40;;;22.30;99.90;;;;;;5134815;27;20502;-59
2022/08/20 01:15:49;;;;;;;17.87;16.37;;;22.40;99.90;;;;;;5134822;27;20478;-59
2022/08/20 01:18:19;;;;;;;19.47;17.63;;;22.50;99.90;;;;;;5134726;27;20948;-59
2022/08/20 01:20:50;;;;;;;18.30;16.40;;;22.50;99.90;;;;;;5134639;27;20886;-59
2022/08/20 01:23:28;;;;;;;19.50;17.90;;;22.60;99.90;;;;;;5134445;27;20445;-59
2022/08/20 01:26:01;;;;;;;18.93;17.23;;;22.50;99.90;;;;;;5134607;27;20480;-60
2022/08/20 01:28:32;;;;;;;20.97;18.90;;;22.50;99.90;;;;;;5133772;27;20494;-60
2022/08/20 01:30:59;;;;;;;22.13;20.03;;;22.60;99.90;;;;;;5134538;27;20548;-59
2022/08/20 01:33:26;;;;;;;23.00;20.87;;;22.50;99.90;;;;;;5134302;27;20445;-60
2022/08/20 01:35:54;;;;;;;21.50;19.43;;;22.50;99.90;;;;;;5134244;27;20803;-59
2022/08/20 01:38:21;;;;;;;21.60;19.60;;;22.50;99.90;;;;;;5134477;27;20445;-59
2022/08/20 01:40:59;;;;;;;20.80;19.00;;;22.50;99.90;;;;;;5134331;27;20455;-59
2022/08/20 01:43:26;;;;;;;23.27;21.07;;;22.50;99.90;;;;;;5134268;27;20856;-59
2022/08/20 01:45:54;;;;;;;21.40;19.50;;;22.50;99.90;;;;;;5134034;27;20563;-59
2022/08/20 01:48:22;;;;;;;20.17;18.47;;;22.50;99.90;;;;;;5133874;27;20827;-59
2022/08/20 01:50:57;;;;;;;17.77;16.23;;;22.40;99.90;;;;;;5134266;27;20810;-60
2022/08/20 01:53:28;;;;;;;17.17;15.77;;;22.20;99.90;;;;;;5134140;27;20440;-59
2022/08/20 01:55:55;;;;;;;18.23;16.60;;;22.20;99.90;;;;;;5134110;27;20483;-59
2022/08/20 01:58:22;;;;;;;18.00;16.40;;;22.20;99.90;;;;;;5133988;27;20804;-59
2022/08/20 02:00:49;;;;;;;18.63;17.03;;;22.10;99.90;;;;;;5133969;27;20788;-59
2022/08/20 02:03:15;;;;;;;18.97;17.27;;;22.10;99.90;;;;;;5134100;27;20896;-59
2022/08/20 02:05:42;;;;;;;17.03;15.53;;;22.10;99.90;;;;;;5133949;27;20476;-59
2022/08/20 02:08:08;;;;;;;17.60;16.00;;;22.10;99.90;;;;;;5133981;27;20484;-59
2022/08/20 02:10:35;;;;;;;17.20;15.50;;;22.00;99.90;;;;;;5133938;28;20444;-59
2022/08/20 02:13:04;;;;;;;17.70;16.20;;;22.00;99.90;;;;;;5133755;28;20444;-60
2022/08/20 02:15:31;;;;;;;16.70;15.20;;;22.00;99.90;;;;;;5133688;28;20804;-59
2022/08/20 02:17:58;;;;;;;17.73;16.33;;;22.00;99.90;;;;;;5133966;28;20975;-59
2022/08/20 02:20:30;;;;;;;17.77;16.27;;;22.00;99.90;;;;;;5133892;28;20531;-59
2022/08/20 02:22:59;;;;;;;18.13;16.53;;;22.00;99.90;;;;;;5133791;28;20780;-59
2022/08/20 02:25:30;;;;;;;19.30;17.63;;;22.00;99.90;;;;;;5133655;28;20464;-59
2022/08/20 02:27:59;;;;;;;18.70;17.13;;;22.00;99.90;;;;;;5133682;28;20822;-59
2022/08/20 02:30:28;;;;;;;18.50;16.87;;;22.00;99.90;;;;;;5133872;28;20449;-59
2022/08/20 02:32:57;;;;;;;21.70;19.60;;;22.00;99.90;;;;;;5133731;28;20499;-59
2022/08/20 02:35:24;;;;;;;19.97;18.17;;;22.00;99.90;;;;;;5133683;28;20535;-59
2022/08/20 02:37:51;;;;;;;20.20;18.40;;;22.00;99.90;;;;;;5133625;28;20449;-59
2022/08/20 02:40:20;;;;;;;20.50;18.57;;;22.00;99.90;;;;;;5134858;27;20491;-59
2022/08/20 02:42:47;;;;;;;21.33;19.33;;;22.00;99.90;;;;;;5137792;27;20555;-59
2022/08/20 02:45:16;;;;;;;21.53;19.60;;;22.10;99.90;;;;;;5137694;27;20579;-59
2022/08/20 02:47:44;;;;;;;20.53;18.43;;;22.10;99.90;;;;;;5137509;27;20903;-59
2022/08/20 02:50:14;;;;;;;20.83;18.83;;;22.00;99.90;;;;;;5137596;27;20448;-59
2022/08/20 02:52:41;;;;;;;21.40;19.00;;;22.00;99.90;;;;;;5137395;27;20444;-59
2022/08/20 02:55:09;;;;;;;20.30;18.40;;;21.90;99.90;;;;;;5137388;27;20970;-59
2022/08/20 02:57:36;;;;;;;21.20;19.03;;;21.80;99.90;;;;;;5137296;27;21013;-60
2022/08/20 03:00:06;;;;;;;18.10;16.53;;;21.80;99.90;;;;;;5137418;27;20457;-60
2022/08/20 03:02:33;;;;;;;17.53;16.03;;;21.80;99.90;;;;;;5137340;27;20863;-60
2022/08/20 03:04:59;;;;;;;17.57;16.00;;;21.70;99.90;;;;;;5137201;27;20534;-60
2022/08/20 03:07:27;;;;;;;17.77;16.13;;;21.70;99.90;;;;;;5137154;27;20511;-60
2022/08/20 03:09:54;;;;;;;16.23;14.87;;;21.60;99.90;;;;;;5137158;27;20474;-60
2022/08/20 03:12:21;;;;;;;15.53;14.30;;;21.50;99.90;;;;;;5137212;27;20638;-60
2022/08/20 03:14:47;;;;;;;16.70;15.30;;;21.50;99.90;;;;;;5137275;27;20448;-60
2022/08/20 03:17:15;;;;;;;17.53;16.03;;;21.50;99.90;;;;;;5137047;27;20455;-60
2022/08/20 03:19:41;;;;;;;15.60;14.30;;;21.50;99.90;;;;;;5136875;27;20849;-60
2022/08/20 03:22:08;;;;;;;15.87;14.60;;;21.50;99.90;;;;;;5136813;27;20444;-60
2022/08/20 03:24:35;;;;;;;14.03;12.93;;;21.50;99.90;;;;;;5137045;27;20496;-60
2022/08/20 03:27:02;;;;;;;14.90;13.63;;;21.50;99.90;;;;;;5136702;27;21075;-60
2022/08/20 03:29:28;;;;;;;14.33;13.13;;;21.40;99.90;;;;;;5136903;27;20487;-60
2022/08/20 03:31:55;;;;;;;14.67;13.50;;;21.40;99.90;;;;;;5136781;27;20479;-60
2022/08/20 03:34:21;;;;;;;13.77;12.60;;;21.40;99.90;;;;;;5136572;27;20454;-60
2022/08/20 03:36:48;;;;;;;12.47;11.57;;;21.40;99.90;;;;;;5136802;27;20445;-60
2022/08/20 03:39:14;;;;;;;12.57;11.57;;;21.40;99.90;;;;;;5136821;27;20444;-60
2022/08/20 03:41:42;;;;;;;11.57;10.57;;;21.40;99.90;;;;;;5136407;27;20939;-60
2022/08/20 03:44:09;;;;;;;12.77;11.67;;;21.40;99.90;;;;;;5136608;27;20462;-60
2022/08/20 03:46:35;;;;;;;11.93;11.10;;;21.40;99.90;;;;;;5136468;27;20477;-60
2022/08/20 03:49:02;;;;;;;12.37;11.37;;;21.40;99.90;;;;;;5136674;27;20484;-60
2022/08/20 03:51:29;;;;;;;10.60;9.80;;;21.40;99.90;;;;;;5135553;27;20447;-60
2022/08/20 03:53:58;;;;;;;12.17;11.23;;;21.40;99.90;;;;;;5136425;27;20425;-60
2022/08/20 03:56:24;;;;;;;11.43;10.60;;;21.40;99.90;;;;;;5136365;27;20818;-60
2022/08/20 03:58:52;;;;;;;11.70;10.70;;;21.30;99.90;;;;;;5136285;27;20467;-60
2022/08/20 04:01:19;;;;;;;11.97;11.07;;;21.30;99.90;;;;;;5136165;27;20539;-61
2022/08/20 04:03:46;;;;;;;12.70;11.70;;;21.40;99.90;;;;;;5136105;27;20495;-60
2022/08/20 04:06:12;;;;;;;13.13;12.03;;;21.40;99.90;;;;;;5136144;27;20476;-60
2022/08/20 04:08:39;;;;;;;12.10;11.10;;;21.40;99.90;;;;;;5136199;27;20812;-60
2022/08/20 04:11:06;;;;;;;14.97;13.60;;;21.40;99.90;;;;;;5135922;27;20924;-60
2022/08/20 04:13:33;;;;;;;14.17;13.07;;;21.40;99.90;;;;;;5136001;27;20459;-60
2022/08/20 04:16:08;;;;;;;13.30;12.20;;;21.40;99.90;;;;;;5135921;27;20453;-60
2022/08/20 04:18:36;;;;;;;12.77;11.83;;;21.40;99.90;;;;;;5135938;27;20934;-60
2022/08/20 04:21:03;;;;;;;13.50;12.40;;;21.50;99.90;;;;;;5135987;27;20440;-60
2022/08/20 04:23:30;;;;;;;13.73;12.43;;;21.50;99.90;;;;;;5136073;27;20799;-60
2022/08/20 04:25:57;;;;;;;15.40;14.20;;;21.60;99.90;;;;;;5135747;27;20472;-60
2022/08/20 04:28:26;;;;;;;15.97;14.60;;;21.50;99.90;;;;;;5135712;27;20451;-60
2022/08/20 04:30:53;;;;;;;15.00;13.80;;;21.50;99.90;;;;;;5135808;27;20531;-60
2022/08/20 04:33:23;;;;;;;15.07;13.77;;;21.60;99.90;;;;;;5135490;27;20451;-60
2022/08/20 04:35:49;;;;;;;16.13;14.83;;;21.60;99.90;;;;;;5135660;27;20452;-60
2022/08/20 04:38:18;;;;;;;14.40;13.20;;;21.60;99.90;;;;;;5135557;27;20441;-60
2022/08/20 04:40:56;;;;;;;15.07;13.90;;;21.60;99.90;;;;;;5135373;27;20445;-60
2022/08/20 04:43:25;;;;;;;16.27;14.77;;;21.60;99.90;;;;;;5135191;27;20524;-60
2022/08/20 04:45:52;;;;;;;15.03;13.50;;;21.60;99.90;;;;;;5135361;27;20939;-61
2022/08/20 04:48:22;;;;;;;15.07;13.97;;;21.60;99.90;;;;;;5135100;27;20476;-61
2022/08/20 04:50:49;;;;;;;15.60;14.20;;;21.60;99.90;;;;;;5135275;27;20452;-60
2022/08/20 04:53:18;;;;;;;15.00;13.80;;;21.60;99.90;;;;;;5135067;27;21027;-60
2022/08/20 04:55:46;;;;;;;16.03;14.73;;;21.70;99.90;;;;;;5135129;27;20888;-60
2022/08/20 04:58:16;;;;;;;15.43;14.13;;;21.70;99.90;;;;;;5135183;27;20445;-60
2022/08/20 05:00:45;;;;;;;17.33;15.67;;;21.70;99.90;;;;;;5135199;27;20451;-60
2022/08/20 05:03:12;;;;;;;16.87;15.43;;;21.70;99.90;;;;;;5134797;27;20444;-60
2022/08/20 05:05:40;;;;;;;17.90;16.37;;;21.80;99.90;;;;;;5134836;27;20493;-60
2022/08/20 05:08:07;;;;;;;15.97;14.50;;;21.80;99.90;;;;;;5134758;27;20536;-60
2022/08/20 05:10:37;;;;;;;17.37;15.87;;;21.80;99.90;;;;;;5135018;27;20781;-60
2022/08/20 05:13:04;;;;;;;17.80;16.10;;;21.90;99.90;;;;;;5135037;27;20471;-60
2022/08/20 05:15:30;;;;;;;18.10;16.50;;;21.90;99.90;;;;;;5134830;27;20452;-60
2022/08/20 05:18:01;;;;;;;18.10;16.40;;;21.90;99.90;;;;;;5134718;27;20448;-60
2022/08/20 05:20:29;;;;;;;18.90;17.20;;;21.90;99.90;;;;;;5134633;27;20444;-60
2022/08/20 05:22:57;;;;;;;17.20;15.70;;;21.80;99.90;;;;;;5134462;27;20509;-60
2022/08/20 05:25:23;;;;;;;20.17;18.27;;;21.80;99.90;;;;;;5134630;27;20444;-60
2022/08/20 05:27:55;;;;;;;17.10;15.50;;;21.80;99.90;;;;;;5134648;27;20870;-60
2022/08/20 05:30:21;;;;;;;16.97;15.50;;;21.80;99.90;;;;;;5134499;27;20445;-60
2022/08/20 05:32:48;;;;;;;16.80;15.33;;;21.90;99.90;;;;;;5134336;27;20451;-60
2022/08/20 05:35:14;;;;;;;20.20;18.37;;;21.90;99.90;;;;;;5134287;27;20447;-60
2022/08/20 05:37:41;;;;;;;19.97;18.20;;;21.90;99.90;;;;;;5134473;27;20799;-60
2022/08/20 05:40:13;;;;;;;18.20;16.50;;;21.90;99.90;;;;;;5134377;27;20478;-60
2022/08/20 05:42:39;;;;;;;19.27;17.70;;;21.90;99.90;;;;;;5134224;27;20827;-60
2022/08/20 05:45:07;;;;;;;18.80;17.27;;;22.00;99.90;;;;;;5134305;27;20445;-60
2022/08/20 05:47:38;;;;;;;19.03;17.33;;;22.00;99.90;;;;;;5133961;27;20487;-61
2022/08/20 05:50:05;;;;;;;18.33;16.83;;;21.90;99.90;;;;;;5134066;27;20451;-60
2022/08/20 05:52:31;;;;;;;19.93;18.20;;;21.70;99.90;;;;;;5133925;27;21019;-60
2022/08/20 05:54:58;;;;;;;19.33;17.70;;;21.80;99.90;;;;;;5134020;27;20952;-60
2022/08/20 05:57:26;;;;;;;19.07;17.40;;;21.80;99.90;;;;;;5134087;27;20815;-60
2022/08/20 05:59:52;;;;;;;18.70;17.00;;;21.80;99.90;;;;;;5133955;27;20448;-60
2022/08/20 06:05:03;;;;;;;19.57;17.77;;;21.80;99.90;;;;;;5133971;27;20842;-60
2022/08/20 06:07:30;;;;;;;18.67;17.07;;;21.80;99.90;;;;;;5133919;27;20533;-60
2022/08/20 06:09:56;;;;;;;18.80;17.10;;;21.70;99.90;;;;;;5133960;27;20605;-60
2022/08/20 06:12:23;;;;;;;18.90;17.37;;;21.60;99.90;;;;;;5133828;28;20476;-60
2022/08/20 06:14:51;;;;;;;18.57;16.97;;;21.70;99.90;;;;;;5133114;27;20444;-60
2022/08/20 06:17:18;;;;;;;21.73;19.73;;;21.70;99.90;;;;;;5133978;28;20454;-60
2022/08/20 06:19:47;;;;;;;19.13;17.63;;;21.70;99.90;;;;;;5133884;28;20444;-60
2022/08/20 06:22:15;;;;;;;17.80;16.30;;;21.80;99.90;;;;;;5133736;28;20455;-60
2022/08/20 06:24:42;;;;;;;20.07;17.83;;;21.80;99.90;;;;;;5133772;28;20445;-60
2022/08/20 06:27:14;;;;;;;21.27;19.27;;;21.80;99.90;;;;;;5133574;28;20564;-61
2022/08/20 06:29:40;;;;;;;18.50;16.97;;;21.80;99.90;;;;;;5133873;28;20429;-60
2022/08/20 06:32:08;;;;;;;18.77;17.20;;;21.80;99.90;;;;;;5133762;27;20441;-60
2022/08/20 06:34:35;;;;;;;20.10;18.20;;;21.80;99.90;;;;;;5133762;27;20445;-60
2022/08/20 06:37:02;;;;;;;17.63;16.10;;;21.80;99.90;;;;;;5133599;28;20483;-60
2022/08/20 06:39:29;;;;;;;18.73;17.10;;;21.80;99.90;;;;;;5133590;28;20472;-60
2022/08/20 06:41:57;;;;;;;18.63;17.03;;;21.80;99.90;;;;;;5133350;28;20536;-60
2022/08/20 06:44:24;;;;;;;19.20;17.50;;;21.80;99.90;;;;;;5133678;28;20444;-60
2022/08/20 06:46:51;;;;;;;18.20;16.70;;;21.80;99.90;;;;;;5133293;28;20486;-60
2022/08/20 06:49:19;;;;;;;20.37;18.77;;;21.80;99.90;;;;;;5133659;28;20444;-60
2022/08/20 06:51:45;;;;;;;20.97;19.00;;;21.70;99.90;;;;;;5133435;28;20437;-60
2022/08/20 06:54:11;;;;;;;20.20;18.20;;;21.70;99.90;;;;;;5133450;28;20441;-60
2022/08/20 06:56:38;;;;;;;19.33;17.63;;;21.70;99.90;;;;;;5133248;28;20517;-60
2022/08/20 06:59:04;;;;;;;19.83;17.77;;;21.70;99.90;;;;;;5133597;28;20441;-60
2022/08/20 07:01:31;;;;;;;20.20;18.23;;;21.70;99.90;;;;;;5133271;28;20965;-60
2022/08/20 07:03:59;;;;;;;19.97;18.23;;;21.70;99.90;;;;;;5133404;28;20444;-60
2022/08/20 07:06:27;;;;;;;20.17;18.37;;;21.70;99.90;;;;;;5133311;28;21053;-60
2022/08/20 07:08:54;;;;;;;20.10;18.20;;;21.80;99.90;;;;;;5133250;28;20480;-60
2022/08/20 07:11:21;;;;;;;20.70;18.90;;;21.80;99.90;;;;;;5133453;28;20517;-60
2022/08/20 07:13:48;;;;;;;22.40;19.97;;;21.80;99.90;;;;;;5133364;28;20879;-60
2022/08/20 07:16:14;;;;;;;19.53;17.37;;;21.80;99.90;;;;;;5133298;28;20804;-60
2022/08/20 07:18:41;;;;;;;18.53;16.93;;;21.80;99.90;;;;;;5133168;28;20539;-60
2022/08/20 07:21:08;;;;;;;20.60;18.60;;;21.80;99.90;;;;;;5133196;28;20451;-60
2022/08/20 07:23:36;;;;;;;19.70;17.97;;;21.80;99.90;;;;;;5133026;28;21030;-60
2022/08/20 07:26:03;;;;;;;19.77;17.97;;;21.80;99.90;;;;;;5133382;27;20536;-60
2022/08/20 07:28:30;;;;;;;21.27;19.27;;;21.80;99.90;;;;;;5136069;27;20484;-60
2022/08/20 07:33:42;;;;;;;20.80;18.90;;;21.80;99.90;;;;;;5136680;27;20439;-60
2022/08/20 07:36:10;;;;;;;18.90;17.30;;;21.80;99.90;;;;;;5136654;27;20440;-60
2022/08/20 07:38:38;;;;;;;20.57;18.80;;;21.80;99.90;;;;;;5136595;27;20958;-60
2022/08/20 07:41:08;;;;;;;20.53;18.73;;;21.80;99.90;;;;;;5136746;27;20440;-60
2022/08/20 07:43:35;;;;;;;22.97;20.67;;;21.80;99.90;;;;;;5136447;27;20463;-60
2022/08/20 07:46:07;;;;;;;21.17;19.27;;;21.80;99.90;;;;;;5136556;27;20444;-60
2022/08/20 07:48:35;;;;;;;19.77;17.90;;;21.80;99.90;;;;;;5136032;27;20486;-60
2022/08/20 07:51:05;;;;;;;23.03;20.93;;;21.90;99.90;;;;;;5136568;27;20872;-60
2022/08/20 07:53:33;;;;;;;20.77;19.00;;;21.90;99.90;;;;;;5136439;27;20452;-60
2022/08/20 07:56:05;;;;;;;24.03;19.73;;;21.90;99.90;;;;;;5136587;27;20477;-60
2022/08/20 07:58:34;;;;;;;20.40;18.67;;;22.00;99.90;;;;;;5136208;27;20456;-60
2022/08/20 08:01:00;;;;;;;21.90;19.80;;;22.00;99.90;;;;;;5136046;27;20445;-60
2022/08/20 08:03:28;;;;;;;20.93;19.13;;;21.90;99.90;;;;;;5136260;27;20451;-60
2022/08/20 08:05:55;;;;;;;21.60;19.77;;;21.90;99.90;;;;;;5136216;27;20448;-60
2022/08/20 08:08:25;;;;;;;21.53;19.63;;;21.90;99.90;;;;;;5136077;27;20838;-60
2022/08/20 08:10:55;;;;;;;23.00;20.90;;;22.00;99.90;;;;;;5136010;27;20445;-60
2022/08/20 08:13:25;;;;;;;22.00;19.93;;;22.00;99.90;;;;;;5136087;27;20451;-60
2022/08/20 08:15:56;;;;;;;22.73;20.70;;;22.10;99.90;;;;;;5136079;27;20478;-60
2022/08/20 08:18:26;;;;;;;21.67;19.77;;;22.10;99.90;;;;;;5136024;27;20487;-60
2022/08/20 08:20:54;;;;;;;23.67;21.63;;;22.10;99.90;;;;;;5135798;27;20979;-60
2022/08/20 08:23:21;;;;;;;24.23;22.20;;;22.10;99.90;;;;;;5135695;27;20860;-60
2022/08/20 08:25:48;;;;;;;22.20;20.20;;;22.10;99.90;;;;;;5135626;27;20480;-60
2022/08/20 08:28:14;;;;;;;26.30;23.80;;;22.10;99.90;;;;;;5135392;27;20905;-60
2022/08/20 08:30:43;;;;;;;24.43;22.03;;;22.10;99.90;;;;;;5135646;27;20537;-60
2022/08/20 08:33:31;;;;;;;24.33;22.00;;;22.10;99.90;;;;;;5135637;27;20448;-60
2022/08/20 08:36:00;;;;;;;25.60;23.00;;;22.00;99.90;;;;;;5135573;27;20445;-60
2022/08/20 08:38:27;;;;;;;26.10;23.80;;;22.10;99.90;;;;;;5134860;27;20472;-60
2022/08/20 08:40:56;;;;;;;24.23;22.17;;;22.10;99.90;;;;;;5135599;27;20468;-60
2022/08/20 08:43:26;;;;;;;27.37;24.90;;;22.10;99.90;;;;;;5135349;27;20445;-60
2022/08/20 08:46:00;;;;;;;25.53;23.13;;;22.10;99.90;;;;;;5135312;27;20460;-60
2022/08/20 08:48:32;;;;;;;24.60;22.50;;;22.20;99.90;;;;;;5135041;27;20582;-60
2022/08/20 08:51:00;;;;;;;23.77;21.77;;;22.20;99.90;;;;;;5135232;27;20448;-61
2022/08/20 08:53:33;;;;;;;22.87;20.80;;;22.20;99.90;;;;;;5135007;27;20794;-60
2022/08/20 08:56:00;;;;;;;24.00;21.90;;;22.20;99.90;;;;;;5135006;27;20951;-60
2022/08/20 08:58:27;;;;;;;24.93;22.73;;;22.20;99.90;;;;;;5135028;27;20490;-60
2022/08/20 09:00:55;;;;;;;22.07;20.03;;;22.20;99.90;;;;;;5134983;27;20449;-60
2022/08/20 09:03:27;;;;;;;26.93;24.53;;;22.10;99.90;;;;;;5134841;27;20451;-60
2022/08/20 09:05:55;;;;;;;26.47;24.00;;;22.20;99.90;;;;;;5135139;27;20437;-60
2022/08/20 09:08:26;;;;;;;26.37;23.97;;;22.10;99.90;;;;;;5135012;27;20565;-60
2022/08/20 09:10:52;;;;;;;24.53;22.33;;;22.20;99.90;;;;;;5134918;27;20820;-60
2022/08/20 09:13:19;;;;;;;28.17;25.60;;;22.20;99.90;;;;;;5134801;27;20811;-60
2022/08/20 09:15:45;;;;;;;23.50;21.40;;;22.20;99.90;;;;;;5134668;27;20460;-60
2022/08/20 09:18:13;;;;;;;26.70;24.27;;;22.20;99.90;;;;;;5134597;27;20445;-60
2022/08/20 09:20:40;;;;;;;26.37;23.97;;;22.30;99.90;;;;;;5134807;27;20487;-60
2022/08/20 09:23:06;;;;;;;24.60;22.30;;;22.30;99.90;;;;;;5134610;27;20785;-60
2022/08/20 09:25:33;;;;;;;27.90;25.30;;;22.30;99.90;;;;;;5134579;27;20444;-60
2022/08/20 09:27:59;;;;;;;26.27;23.67;;;22.30;99.90;;;;;;5134431;27;20917;-60
2022/08/20 09:30:26;;;;;;;27.47;25.07;;;22.40;99.90;;;;;;5134359;27;20444;-60
2022/08/20 09:32:52;;;;;;;26.67;24.27;;;22.40;99.90;;;;;;5134297;27;20462;-60
2022/08/20 09:35:20;;;;;;;26.87;24.50;;;22.40;99.90;;;;;;5134572;27;20444;-60
2022/08/20 09:37:47;;;;;;;29.17;26.37;;;22.40;99.90;;;;;;5134429;27;20532;-60
2022/08/20 09:40:14;;;;;;;24.50;22.07;;;22.50;99.90;;;;;;5134328;27;20445;-60
2022/08/20 09:42:40;;;;;;;25.80;23.30;;;22.50;99.90;;;;;;5134234;27;20449;-60
2022/08/20 09:45:08;;;;;;;24.90;22.77;;;22.50;99.90;;;;;;5134256;27;20497;-60
2022/08/20 09:47:34;;;;;;;28.87;26.07;;;22.50;99.90;;;;;;5133853;27;20477;-60
2022/08/20 09:50:01;;;;;;;27.70;25.20;;;22.50;99.90;;;;;;5133402;27;20544;-60
2022/08/20 09:52:32;;;;;;;29.37;26.73;;;22.50;99.90;;;;;;5134067;27;20804;-60
2022/08/20 09:55:01;;;;;;;28.10;25.60;;;22.60;99.90;;;;;;5134178;27;20493;-60
2022/08/20 09:57:29;;;;;;;24.77;22.47;;;22.70;99.90;;;;;;5134024;27;20499;-60
2022/08/20 10:00:00;;;;;;;26.87;24.17;;;22.70;99.90;;;;;;5133810;27;20441;-60
2022/08/20 10:02:27;;;;;;;26.73;24.23;;;22.70;99.90;;;;;;5134118;27;20447;-60
2022/08/20 10:04:53;;;;;;;30.43;27.43;;;22.80;99.90;;;;;;5133801;27;20974;-60
2022/08/20 10:07:20;;;;;;;30.10;27.30;;;22.70;99.90;;;;;;5133878;27;20469;-60
2022/08/20 10:09:48;;;;;;;29.03;26.17;;;22.60;99.90;;;;;;5133884;27;20448;-60
2022/08/20 10:12:14;;;;;;;30.40;27.57;;;22.70;99.90;;;;;;5133677;28;20801;-60
2022/08/20 10:14:41;;;;;;;27.57;24.97;;;22.80;99.90;;;;;;5133963;28;20476;-60
2022/08/20 10:17:07;;;;;;;25.77;23.27;;;22.90;99.90;;;;;;5133890;28;20498;-60
2022/08/20 10:19:34;;;;;;;26.00;23.60;;;23.00;99.90;;;;;;5133675;28;20451;-60
2022/08/20 10:22:01;;;;;;;25.80;23.50;;;23.00;99.90;;;;;;5133658;28;20472;-60
2022/08/20 10:24:28;;;;;;;27.17;24.53;;;23.10;99.90;;;;;;5133755;28;20448;-60
2022/08/20 10:26:58;;;;;;;26.03;23.53;;;23.20;99.90;;;;;;5133598;28;20534;-60
2022/08/20 10:29:25;;;;;;;26.37;23.87;;;23.30;99.90;;;;;;5133754;28;20585;-60
2022/08/20 10:31:53;;;;;;;27.67;25.07;;;23.30;99.90;;;;;;5133696;28;20448;-60
2022/08/20 10:34:20;;;;;;;26.43;24.00;;;23.40;99.90;;;;;;5133714;27;20480;-60
2022/08/20 10:36:46;;;;;;;26.30;23.70;;;23.50;99.90;;;;;;5133683;28;20444;-60
2022/08/20 10:39:13;;;;;;;25.80;23.30;;;23.50;99.90;;;;;;5133606;28;20544;-60
2022/08/20 10:41:39;;;;;;;23.83;21.80;;;23.70;99.90;;;;;;5133464;28;20899;-60
2022/08/20 10:44:07;;;;;;;25.63;23.07;;;23.70;99.90;;;;;;5133733;28;20449;-60
2022/08/20 10:46:35;;;;;;;24.57;22.10;;;23.70;99.90;;;;;;5133443;28;20948;-60
2022/08/20 10:49:01;;;;;;;24.40;21.77;;;23.70;99.90;;;;;;5133111;28;20879;-60
2022/08/20 10:51:28;;;;;;;21.93;19.73;;;23.80;99.90;;;;;;5133409;28;20451;-60
2022/08/20 10:53:54;;;;;;;24.67;20.63;;;23.90;99.90;;;;;;5133366;28;20445;-60
2022/08/20 10:56:21;;;;;;;20.47;18.67;;;23.90;99.90;;;;;;5133586;28;20451;-60
2022/08/20 10:58:47;;;;;;;23.00;20.90;;;24.00;99.90;;;;;;5133411;28;20497;-60
2022/08/20 11:01:15;;;;;;;21.30;19.23;;;24.00;99.90;;;;;;5134658;27;20481;-60
2022/08/20 11:03:41;;;;;;;22.13;19.90;;;24.00;99.90;;;;;;5137298;27;20443;-60
2022/08/20 11:06:08;;;;;;;22.67;20.50;;;24.00;99.90;;;;;;5137260;27;20440;-60
2022/08/20 11:08:35;;;;;;;25.87;23.27;;;24.00;99.90;;;;;;5137029;27;20472;-60
2022/08/20 11:11:01;;;;;;;25.07;22.47;;;24.00;99.90;;;;;;5137342;27;20865;-60
2022/08/20 11:13:28;;;;;;;23.33;21.00;;;23.90;99.90;;;;;;5137132;27;20444;-60
2022/08/20 11:15:54;;;;;;;21.50;19.50;;;23.80;99.90;;;;;;5136961;27;20957;-60
2022/08/20 11:18:22;;;;;;;28.30;25.63;;;23.80;99.90;;;;;;5137130;27;20445;-60
2022/08/20 11:20:48;;;;;;;23.10;20.90;;;23.90;99.90;;;;;;5136925;27;20539;-60
2022/08/20 11:23:15;;;;;;;21.10;19.03;;;23.90;99.90;;;;;;5136796;27;20807;-60
2022/08/20 11:25:41;;;;;;;21.97;18.97;;;23.90;99.90;;;;;;5136992;27;20448;-60
2022/08/20 11:28:08;;;;;;;20.03;18.07;;;23.90;99.90;;;;;;5136798;27;20469;-60
2022/08/20 11:30:37;;;;;;;17.70;16.10;;;23.90;99.90;;;;;;5136921;27;20480;-60
2022/08/20 11:33:04;;;;;;;17.67;16.27;;;23.90;99.90;;;;;;5136700;27;20543;-60
2022/08/20 11:35:34;;;;;;;18.07;16.50;;;24.00;99.90;;;;;;5136672;27;20501;-61
2022/08/20 11:38:01;;;;;;;18.53;16.70;;;24.00;99.90;;;;;;5136910;27;20455;-60
2022/08/20 11:40:30;;;;;;;18.00;16.50;;;24.00;99.90;;;;;;5136715;27;20795;-60
2022/08/20 11:42:56;;;;;;;17.93;15.20;;;24.00;99.90;;;;;;5136619;27;20819;-60
2022/08/20 11:45:23;;;;;;;16.30;14.70;;;24.00;99.90;;;;;;5136500;27;20450;-60
2022/08/20 11:47:49;;;;;;;15.00;13.70;;;24.00;99.90;;;;;;5136220;27;20480;-60
2022/08/20 11:50:19;;;;;;;14.53;13.23;;;24.00;99.90;;;;;;5136098;27;20551;-60
2022/08/20 11:52:47;;;;;;;12.80;11.80;;;23.80;99.90;;;;;;5135945;27;20447;-60
2022/08/20 11:55:16;;;;;;;12.93;11.83;;;23.80;99.90;;;;;;5136238;27;20803;-60
2022/08/20 11:57:44;;;;;;;12.07;11.07;;;23.80;99.90;;;;;;5136127;27;20480;-60
2022/08/20 12:00:14;;;;;;;11.60;10.43;;;23.90;99.90;;;;;;5135961;27;20857;-60
2022/08/20 12:02:41;;;;;;;14.30;10.60;;;23.90;99.90;;;;;;5135802;27;21004;-61
2022/08/20 12:05:10;;;;;;;10.23;9.43;;;23.90;99.90;;;;;;5136161;27;20450;-60
2022/08/20 12:07:36;;;;;;;10.73;9.73;;;24.00;99.90;;;;;;5136029;27;20469;-60
2022/08/20 12:10:06;;;;;;;8.73;8.13;;;24.10;99.90;;;;;;5135823;27;20535;-60
2022/08/20 12:12:32;;;;;;;12.50;11.30;;;24.00;99.90;;;;;;5134992;27;20441;-60
2022/08/20 12:14:59;;;;;;;7.40;6.80;;;24.10;99.90;;;;;;5135811;27;20445;-60
2022/08/20 12:17:31;;;;;;;7.70;7.17;;;24.00;99.90;;;;;;5135655;27;20445;-60
2022/08/20 12:20:00;;;;;;;7.70;7.10;;;24.00;99.90;;;;;;5135877;27;20467;-60
2022/08/20 12:22:26;;;;;;;7.37;6.67;;;24.10;99.90;;;;;;5135732;27;20440;-60
2022/08/20 12:24:54;;;;;;;8.60;7.77;;;24.20;99.90;;;;;;5135761;27;20480;-60
2022/08/20 12:27:24;;;;;;;9.40;8.50;;;24.20;99.90;;;;;;5135664;27;20829;-60
2022/08/20 12:29:52;;;;;;;9.27;8.57;;;24.20;99.90;;;;;;5135396;27;20537;-60
2022/08/20 12:32:20;;;;;;;9.73;8.83;;;24.20;99.90;;;;;;5135522;27;20445;-61
2022/08/20 12:34:46;;;;;;;9.43;8.63;;;24.20;99.90;;;;;;5135545;27;20597;-60
2022/08/20 12:37:15;;;;;;;9.70;9.00;;;24.20;99.90;;;;;;5135326;27;20455;-60